Time;durP1;ratioP1;P1;durP2;ratioP2;P2;SDS_P1;SDS_P2;PMS_P1;PMS_P2;Temp;Humidity;BMP_temperature;BMP_pressure;BME280_temperature;BME280_humidity;BME280_pressure;Samples;Min_cycle;Max_cycle;Signal;HPM_P1;HPM_P2
2022/09/13 00:00:19;;;;;;;61.63;50.70;;;24.80;58.00;;;;;;4979108;27;95596;-65
2022/09/13 00:02:44;;;;;;;61.28;50.42;;;24.80;58.10;;;;;;4977750;28;91497;-65
2022/09/13 00:05:10;;;;;;;60.67;50.50;;;24.80;58.10;;;;;;4981238;27;93416;-65
2022/09/13 00:07:35;;;;;;;60.75;50.40;;;24.80;58.00;;;;;;4989076;28;92346;-65
2022/09/13 00:10:01;;;;;;;62.28;50.83;;;24.80;58.00;;;;;;4995306;27;92297;-64
2022/09/13 00:12:27;;;;;;;61.40;50.72;;;24.80;58.00;;;;;;4978154;27;94929;-65
2022/09/13 00:14:52;;;;;;;60.70;50.42;;;24.80;58.00;;;;;;4942080;27;97894;-64
2022/09/13 00:17:18;;;;;;;60.95;50.72;;;24.80;58.10;;;;;;4966697;27;95562;-65
2022/09/13 00:19:44;;;;;;;62.05;50.53;;;24.80;58.00;;;;;;4987877;28;91089;-64
2022/09/13 00:22:09;;;;;;;61.03;50.67;;;24.80;58.00;;;;;;4997856;28;90034;-65
2022/09/13 00:24:36;;;;;;;60.78;50.60;;;24.80;58.00;;;;;;4995166;28;90579;-64
2022/09/13 00:27:01;;;;;;;62.80;50.58;;;24.80;58.00;;;;;;5004746;27;91408;-65
2022/09/13 00:29:27;;;;;;;61.60;50.67;;;24.80;58.50;;;;;;4999489;28;96020;-64
2022/09/13 00:31:53;;;;;;;62.13;50.55;;;24.80;58.00;;;;;;4998764;28;93474;-64
2022/09/13 00:34:19;;;;;;;60.63;50.38;;;24.80;58.00;;;;;;5004098;28;90364;-64
2022/09/13 00:36:45;;;;;;;61.50;50.70;;;24.80;58.10;;;;;;4993856;28;92684;-66
2022/09/13 00:39:11;;;;;;;61.45;50.60;;;24.80;58.00;;;;;;4996307;28;92462;-65
2022/09/13 00:41:37;;;;;;;61.88;50.53;;;24.80;58.10;;;;;;4999177;28;90632;-64
2022/09/13 00:44:05;;;;;;;61.17;50.45;;;24.80;58.10;;;;;;5007663;28;90830;-65
2022/09/13 00:46:33;;;;;;;60.85;50.50;;;24.70;58.10;;;;;;4996945;27;92979;-65
2022/09/13 00:49:11;;;;;;;61.63;50.63;;;24.80;58.20;;;;;;4997605;28;91549;-65
2022/09/13 00:51:37;;;;;;;61.13;50.53;;;24.70;58.20;;;;;;5000375;27;89942;-64
2022/09/13 00:54:04;;;;;;;62.03;50.55;;;24.70;58.20;;;;;;5007888;28;94979;-64
2022/09/13 00:56:33;;;;;;;61.90;50.65;;;24.80;58.30;;;;;;4999392;27;90959;-64
2022/09/13 00:59:16;;;;;;;61.83;50.80;;;24.70;58.30;;;;;;5002870;28;90004;-65
2022/09/13 01:01:48;;;;;;;60.90;50.35;;;24.70;58.20;;;;;;5000956;28;94292;-64
2022/09/13 01:04:15;;;;;;;61.80;50.63;;;24.80;58.20;;;;;;5002387;28;89775;-65
2022/09/13 01:06:41;;;;;;;62.22;50.75;;;24.80;58.20;;;;;;5001201;27;90498;-65
2022/09/13 01:09:09;;;;;;;62.80;50.85;;;24.80;58.20;;;;;;4992560;27;90695;-65
2022/09/13 01:11:43;;;;;;;60.60;50.47;;;24.80;58.30;;;;;;5002146;28;94041;-65
2022/09/13 01:14:08;;;;;;;61.63;50.88;;;24.70;58.30;;;;;;5005477;28;93486;-64
2022/09/13 01:16:34;;;;;;;61.42;50.40;;;24.70;58.40;;;;;;5002542;27;90621;-65
2022/09/13 01:19:00;;;;;;;61.20;50.95;;;24.70;58.50;;;;;;5002295;28;90378;-65
2022/09/13 01:21:53;;;;;;;61.30;50.38;;;24.70;58.50;;;;;;5001787;28;89680;-65
2022/09/13 01:24:21;;;;;;;61.53;50.75;;;24.70;58.50;;;;;;5003865;27;92511;-65
2022/09/13 01:27:18;;;;;;;61.30;50.85;;;24.70;58.50;;;;;;5003437;28;92028;-65
2022/09/13 01:30:21;;;;;;;61.25;50.33;;;24.70;58.50;;;;;;5004581;28;91922;-64
2022/09/13 01:32:50;;;;;;;60.40;50.42;;;24.70;58.50;;;;;;4992450;28;91516;-65
2022/09/13 01:35:34;;;;;;;61.40;50.53;;;24.70;58.50;;;;;;5001242;27;90292;-65
2022/09/13 01:38:09;;;;;;;61.15;50.90;;;24.70;58.60;;;;;;4999869;27;95336;-65
2022/09/13 01:40:59;;;;;;;60.53;50.50;;;24.70;58.50;;;;;;4995110;28;91375;-64
2022/09/13 01:43:28;;;;;;;61.37;50.60;;;24.70;58.50;;;;;;4996342;28;90900;-65
2022/09/13 01:46:29;;;;;;;62.20;50.40;;;24.70;58.50;;;;;;4996100;28;90421;-65
2022/09/13 01:48:55;;;;;;;;;;;24.70;58.50;;;;;;4981460;28;91360;-65
2022/09/13 01:51:31;;;;;;;61.88;50.60;;;24.70;58.50;;;;;;4994729;28;90368;-65
2022/09/13 01:54:02;;;;;;;62.53;50.45;;;24.70;58.50;;;;;;4990980;28;96694;-65
2022/09/13 01:56:37;;;;;;;62.00;50.72;;;24.70;58.60;;;;;;4998534;28;89851;-65
2022/09/13 01:59:34;;;;;;;61.72;50.85;;;24.70;58.60;;;;;;4996352;28;91403;-65
2022/09/13 02:02:09;;;;;;;60.97;50.40;;;24.70;58.60;;;;;;4988028;28;96429;-65
2022/09/13 02:04:46;;;;;;;61.15;50.88;;;24.60;58.70;;;;;;4989145;28;90831;-64
2022/09/13 02:07:23;;;;;;;60.70;50.33;;;24.70;58.70;;;;;;4995263;27;89704;-65
2022/09/13 02:09:58;;;;;;;61.20;50.55;;;24.70;58.70;;;;;;5006752;27;92563;-65
2022/09/13 02:12:27;;;;;;;60.70;50.63;;;24.70;58.70;;;;;;4992839;28;94746;-64
2022/09/13 02:15:08;;;;;;;61.08;50.65;;;24.70;58.70;;;;;;5002701;27;92089;-65
2022/09/13 02:17:40;;;;;;;60.80;50.60;;;24.60;58.80;;;;;;5003963;28;92216;-65
2022/09/13 02:20:12;;;;;;;61.13;50.63;;;24.60;58.80;;;;;;4999306;28;97118;-65
2022/09/13 02:22:42;;;;;;;62.30;50.63;;;24.60;58.70;;;;;;5002887;28;92808;-65
2022/09/13 02:25:17;;;;;;;60.72;50.40;;;24.60;58.70;;;;;;4991011;28;91622;-65
2022/09/13 02:27:48;;;;;;;61.15;50.53;;;24.60;58.80;;;;;;5002608;28;93879;-64
2022/09/13 02:30:14;;;;;;;61.83;50.60;;;24.60;58.80;;;;;;5002128;27;93089;-65
2022/09/13 02:32:58;;;;;;;60.80;50.72;;;24.60;58.80;;;;;;5010339;27;91390;-66
2022/09/13 02:35:35;;;;;;;62.22;50.75;;;24.60;58.90;;;;;;5002643;27;95637;-65
2022/09/13 02:38:08;;;;;;;62.08;50.60;;;24.60;58.90;;;;;;5000068;27;93206;-64
2022/09/13 02:40:41;;;;;;;62.13;50.70;;;24.60;58.80;;;;;;5005004;28;93816;-65
2022/09/13 02:43:21;;;;;;;61.40;50.85;;;24.60;58.80;;;;;;5003095;27;95339;-65
2022/09/13 02:46:04;;;;;;;62.05;50.83;;;24.60;58.90;;;;;;5010320;28;93797;-66
2022/09/13 02:49:08;;;;;;;60.90;50.67;;;24.60;59.00;;;;;;5008462;27;94310;-63
2022/09/13 02:51:49;;;;;;;60.40;50.40;;;24.60;59.10;;;;;;4997837;28;91317;-67
2022/09/13 02:54:30;;;;;;;61.08;50.58;;;24.60;59.10;;;;;;5006160;27;90581;-65
2022/09/13 02:57:23;;;;;;;61.80;50.60;;;24.60;59.00;;;;;;5001576;28;90337;-65
2022/09/13 02:59:49;;;;;;;60.65;50.28;;;24.50;59.00;;;;;;5002022;28;95344;-66
2022/09/13 03:02:19;;;;;;;61.80;50.55;;;24.60;59.00;;;;;;4997366;28;90538;-66
2022/09/13 03:04:45;;;;;;;60.95;50.40;;;24.60;58.90;;;;;;4998953;28;91063;-66
2022/09/13 03:07:12;;;;;;;61.50;50.53;;;24.60;58.90;;;;;;4993688;28;91938;-66
2022/09/13 03:09:53;;;;;;;60.85;50.58;;;24.60;58.90;;;;;;4995486;28;89562;-65
2022/09/13 03:12:48;;;;;;;61.92;50.30;;;24.60;58.90;;;;;;5002536;28;99844;-65
2022/09/13 03:15:35;;;;;;;60.55;50.22;;;24.60;59.00;;;;;;4999018;28;91986;-65
2022/09/13 03:18:25;;;;;;;60.25;50.25;;;24.50;59.00;;;;;;4997201;28;92949;-64
2022/09/13 03:21:17;;;;;;;60.70;50.72;;;24.60;59.00;;;;;;5004010;27;90841;-65
2022/09/13 03:24:22;;;;;;;61.13;50.45;;;24.50;58.90;;;;;;5008518;27;93566;-66
2022/09/13 03:26:57;;;;;;;60.58;50.45;;;24.50;59.00;;;;;;4995958;28;91917;-66
2022/09/13 03:29:41;;;;;;;62.17;50.72;;;24.50;59.00;;;;;;5003018;28;91978;-65
2022/09/13 03:32:31;;;;;;;60.95;50.60;;;24.50;59.10;;;;;;5003841;28;95563;-65
2022/09/13 03:35:13;;;;;;;60.77;50.57;;;24.60;59.00;;;;;;5000398;27;90416;-66
2022/09/13 03:37:57;;;;;;;60.58;50.53;;;24.50;59.00;;;;;;5002376;28;92318;-68
2022/09/13 03:40:32;;;;;;;61.20;50.58;;;24.50;58.90;;;;;;4990926;28;100603;-64
2022/09/13 03:43:05;;;;;;;60.65;50.28;;;24.50;59.00;;;;;;5009882;28;90723;-67
2022/09/13 03:45:35;;;;;;;61.08;50.72;;;24.50;59.00;;;;;;4993871;28;91450;-66
2022/09/13 03:48:03;;;;;;;61.00;50.47;;;24.50;59.10;;;;;;4999058;28;91022;-65
2022/09/13 03:50:30;;;;;;;60.72;50.63;;;24.50;59.10;;;;;;4998371;28;91428;-65
2022/09/13 03:53:01;;;;;;;61.38;50.65;;;24.50;59.10;;;;;;5008526;27;91868;-65
2022/09/13 03:55:30;;;;;;;61.30;50.63;;;24.50;59.10;;;;;;5002924;27;92469;-65
2022/09/13 03:57:56;;;;;;;61.88;50.50;;;24.50;59.10;;;;;;5001949;27;92706;-66
2022/09/13 04:00:21;;;;;;;66.00;50.63;;;24.50;59.10;;;;;;4994087;27;94616;-65
2022/09/13 04:02:47;;;;;;;60.55;50.55;;;24.50;59.20;;;;;;4987056;28;95272;-65
2022/09/13 04:05:13;;;;;;;60.92;50.42;;;24.40;59.20;;;;;;4999226;28;94585;-66
2022/09/13 04:07:38;;;;;;;61.65;50.70;;;24.50;59.30;;;;;;4997166;27;91955;-66
2022/09/13 04:10:04;;;;;;;61.00;50.42;;;24.50;59.30;;;;;;5004452;28;89488;-65
2022/09/13 04:12:30;;;;;;;61.38;50.67;;;24.40;59.30;;;;;;4997502;27;89837;-66
2022/09/13 04:14:56;;;;;;;62.22;50.55;;;24.50;59.40;;;;;;4989263;27;95309;-67
2022/09/13 04:17:22;;;;;;;61.05;50.75;;;24.40;59.50;;;;;;4997210;28;93159;-66
2022/09/13 04:19:48;;;;;;;63.40;50.67;;;24.40;59.50;;;;;;4997762;28;90177;-67
2022/09/13 04:22:14;;;;;;;62.10;50.92;;;24.40;59.50;;;;;;5007521;28;95446;-66
2022/09/13 04:24:42;;;;;;;63.05;50.83;;;24.40;59.40;;;;;;5008428;27;91098;-66
2022/09/13 04:27:07;;;;;;;60.67;50.38;;;24.50;59.30;;;;;;5003299;27;90978;-65
2022/09/13 04:29:33;;;;;;;66.13;50.75;;;24.50;59.40;;;;;;4999238;28;91305;-65
2022/09/13 04:31:59;;;;;;;68.70;51.78;;;24.40;59.50;;;;;;4990873;27;93457;-65
2022/09/13 04:34:25;;;;;;;69.95;52.28;;;24.40;59.50;;;;;;5005096;27;91311;-65
2022/09/13 04:36:51;;;;;;;66.88;51.72;;;24.50;59.60;;;;;;5007426;28;92500;-66
2022/09/13 04:39:19;;;;;;;65.53;51.75;;;24.50;59.50;;;;;;5013761;28;90543;-65
2022/09/13 04:41:47;;;;;;;68.18;51.88;;;24.50;59.60;;;;;;5006601;28;89868;-65
2022/09/13 04:44:14;;;;;;;71.20;52.53;;;24.40;59.50;;;;;;5006968;27;97215;-65
2022/09/13 04:46:40;;;;;;;71.65;52.35;;;24.40;59.60;;;;;;4996494;27;90047;-66
2022/09/13 04:49:08;;;;;;;71.95;53.72;;;24.40;59.60;;;;;;4998984;27;96592;-65
2022/09/13 04:51:33;;;;;;;72.97;53.47;;;24.50;59.60;;;;;;5006793;28;90064;-66
2022/09/13 04:53:59;;;;;;;73.50;53.55;;;24.50;59.60;;;;;;5011518;28;92435;-64
2022/09/13 04:56:25;;;;;;;77.22;53.95;;;24.40;59.60;;;;;;5010397;28;91839;-64
2022/09/13 04:58:52;;;;;;;77.47;54.63;;;24.40;59.50;;;;;;5010193;27;89722;-63
2022/09/13 05:01:18;;;;;;;76.10;54.60;;;24.40;59.60;;;;;;5002295;27;94368;-64
2022/09/13 05:03:43;;;;;;;85.63;56.83;;;24.50;59.70;;;;;;5010194;28;91124;-64
2022/09/13 05:06:12;;;;;;;99.90;60.65;;;24.50;60.00;;;;;;4995979;28;92924;-64
2022/09/13 05:08:38;;;;;;;88.15;57.30;;;24.40;61.30;;;;;;5010151;28;91373;-64
2022/09/13 05:11:04;;;;;;;89.50;56.85;;;24.50;60.90;;;;;;5007593;28;89389;-64
2022/09/13 05:13:31;;;;;;;90.45;57.88;;;24.40;61.30;;;;;;5009795;27;92532;-64
2022/09/13 05:15:58;;;;;;;79.22;56.45;;;24.50;61.50;;;;;;5003986;27;94502;-64
2022/09/13 05:18:32;;;;;;;82.75;57.65;;;24.40;61.40;;;;;;5003848;28;92182;-64
2022/09/13 05:20:59;;;;;;;90.53;57.53;;;24.40;61.50;;;;;;5007256;28;91618;-64
2022/09/13 05:23:26;;;;;;;87.82;58.10;;;24.30;61.40;;;;;;5006301;28;91193;-64
2022/09/13 05:25:53;;;;;;;93.85;59.05;;;24.40;61.40;;;;;;4994716;27;96144;-64
2022/09/13 05:28:20;;;;;;;91.88;58.28;;;24.40;61.40;;;;;;5006590;28;96923;-64
2022/09/13 05:31:07;;;;;;;90.85;58.83;;;24.40;61.50;;;;;;5006702;28;91516;-66
2022/09/13 05:33:36;;;;;;;93.30;58.58;;;24.40;61.80;;;;;;5013931;28;92392;-64
2022/09/13 05:36:04;;;;;;;94.80;58.60;;;24.40;61.70;;;;;;5011119;27;91480;-64
2022/09/13 05:38:29;;;;;;;85.88;57.08;;;24.40;61.30;;;;;;4997519;28;90961;-64
2022/09/13 05:40:57;;;;;;;88.45;59.00;;;24.50;61.30;;;;;;5003874;27;90102;-64
2022/09/13 05:43:24;;;;;;;85.20;58.03;;;24.40;61.30;;;;;;5005963;27;92527;-64
2022/09/13 05:45:50;;;;;;;86.40;58.88;;;24.40;61.30;;;;;;5000662;27;91979;-64
2022/09/13 05:48:16;;;;;;;84.38;57.28;;;24.40;61.70;;;;;;5009769;28;89968;-64
2022/09/13 05:50:41;;;;;;;89.90;58.17;;;24.40;61.40;;;;;;5008574;28;93447;-64
2022/09/13 05:53:07;;;;;;;90.53;58.63;;;24.40;61.20;;;;;;5014037;28;93225;-66
2022/09/13 05:55:33;;;;;;;88.65;58.22;;;24.40;61.30;;;;;;5006000;28;91506;-64
2022/09/13 05:58:01;;;;;;;84.25;58.75;;;24.40;61.30;;;;;;5007580;28;90836;-64
2022/09/13 06:00:26;;;;;;;85.05;58.30;;;24.40;61.20;;;;;;5009012;27;90381;-65
2022/09/13 06:02:52;;;;;;;83.18;58.08;;;24.40;61.30;;;;;;5011199;27;91373;-64
2022/09/13 06:05:18;;;;;;;80.75;57.67;;;24.40;61.10;;;;;;4998864;28;93279;-64
2022/09/13 06:07:44;;;;;;;82.35;57.53;;;24.40;60.40;;;;;;5007395;28;90752;-64
2022/09/13 06:10:10;;;;;;;81.47;57.42;;;24.30;61.10;;;;;;5010922;27;91196;-65
2022/09/13 06:12:37;;;;;;;83.25;57.80;;;24.40;61.10;;;;;;5010489;27;91223;-64
2022/09/13 06:15:03;;;;;;;86.35;57.50;;;24.40;61.10;;;;;;5007898;27;91012;-63
2022/09/13 06:17:28;;;;;;;80.05;56.38;;;24.40;61.20;;;;;;5013207;28;90872;-65
2022/09/13 06:19:55;;;;;;;82.45;57.38;;;24.40;61.10;;;;;;5002037;28;90635;-64
2022/09/13 06:22:21;;;;;;;82.93;57.05;;;24.40;61.10;;;;;;5010540;27;90248;-64
2022/09/13 06:24:47;;;;;;;82.25;56.97;;;24.30;61.00;;;;;;5005428;27;92066;-64
2022/09/13 06:27:12;;;;;;;78.32;56.78;;;24.30;61.10;;;;;;5005615;28;91082;-64
2022/09/13 06:29:38;;;;;;;80.00;56.88;;;24.30;61.10;;;;;;5010727;28;90254;-64
2022/09/13 06:32:04;;;;;;;78.88;56.80;;;24.30;61.10;;;;;;5009963;28;92009;-64
2022/09/13 06:34:30;;;;;;;80.13;56.75;;;24.40;61.20;;;;;;5009863;28;94454;-64
2022/09/13 06:36:56;;;;;;;75.45;56.17;;;24.30;61.10;;;;;;5002544;28;90330;-64
2022/09/13 06:39:21;;;;;;;76.60;56.63;;;24.30;61.10;;;;;;5009764;27;89522;-64
2022/09/13 06:41:47;;;;;;;76.88;56.72;;;24.30;61.10;;;;;;5002703;28;91930;-64
2022/09/13 06:44:13;;;;;;;77.75;56.05;;;24.30;61.10;;;;;;5003621;28;91832;-64
2022/09/13 06:46:39;;;;;;;78.43;56.22;;;24.30;61.10;;;;;;5010558;27;89875;-64
2022/09/13 06:49:06;;;;;;;76.88;55.50;;;24.30;61.10;;;;;;5003865;28;89270;-64
2022/09/13 06:51:33;;;;;;;75.95;55.58;;;24.30;61.10;;;;;;5003960;28;91465;-64
2022/09/13 06:54:00;;;;;;;76.32;55.85;;;24.30;60.90;;;;;;5001117;28;90882;-64
2022/09/13 06:56:28;;;;;;;78.15;55.97;;;24.30;60.90;;;;;;5009698;28;90996;-64
2022/09/13 06:58:58;;;;;;;75.53;55.80;;;24.30;61.00;;;;;;5002746;27;98491;-64
2022/09/13 07:01:34;;;;;;;74.05;55.35;;;24.40;60.90;;;;;;5005566;28;91171;-64
2022/09/13 07:04:03;;;;;;;78.95;55.97;;;24.30;60.90;;;;;;5001319;28;92417;-64
2022/09/13 07:06:31;;;;;;;78.45;55.70;;;24.20;61.00;;;;;;5005050;27;90901;-64
2022/09/13 07:09:01;;;;;;;78.38;56.45;;;24.30;61.10;;;;;;5002680;28;89745;-64
2022/09/13 07:11:34;;;;;;;73.72;55.17;;;24.30;61.00;;;;;;5004263;28;90226;-64
2022/09/13 07:14:00;;;;;;;78.38;56.10;;;24.30;60.90;;;;;;5017211;28;91234;-63
2022/09/13 07:16:30;;;;;;;75.95;55.65;;;24.30;61.00;;;;;;5006110;27;90055;-64
2022/09/13 07:19:04;;;;;;;75.67;55.87;;;24.30;61.00;;;;;;5012320;28;89596;-64
2022/09/13 07:21:31;;;;;;;72.53;54.75;;;24.30;61.00;;;;;;5004358;28;92351;-64
2022/09/13 07:23:57;;;;;;;76.63;55.47;;;24.30;61.00;;;;;;5006456;27;91962;-64
2022/09/13 07:26:26;;;;;;;71.65;55.13;;;24.20;61.10;;;;;;5012031;28;90323;-64
2022/09/13 07:28:54;;;;;;;72.80;55.20;;;24.30;61.10;;;;;;5008399;28;91472;-64
2022/09/13 07:31:23;;;;;;;73.68;54.92;;;24.30;61.00;;;;;;5004696;28;91228;-64
2022/09/13 07:33:54;;;;;;;70.55;54.67;;;24.30;60.90;;;;;;4999998;28;91114;-65
2022/09/13 07:36:20;;;;;;;72.45;55.33;;;24.30;60.90;;;;;;4960727;28;1206765;-67
2022/09/13 07:38:47;;;;;;;70.47;54.67;;;24.40;60.90;;;;;;5010759;28;88991;-66
2022/09/13 07:41:15;;;;;;;74.70;54.85;;;24.40;60.90;;;;;;4996916;28;91513;-66
2022/09/13 07:43:41;;;;;;;74.47;55.28;;;24.40;60.80;;;;;;5000020;28;90965;-66
2022/09/13 07:46:09;;;;;;;74.22;55.13;;;24.40;60.70;;;;;;5005045;28;91221;-65
2022/09/13 07:48:38;;;;;;;74.22;54.33;;;24.30;60.60;;;;;;5003978;28;90311;-66
2022/09/13 07:51:11;;;;;;;72.32;54.70;;;24.40;60.60;;;;;;5005180;28;91045;-66
2022/09/13 07:53:38;;;;;;;70.82;54.45;;;24.40;60.70;;;;;;4996564;27;92473;-66
2022/09/13 07:56:07;;;;;;;73.47;54.60;;;24.40;60.60;;;;;;5000628;28;89930;-66
2022/09/13 07:58:35;;;;;;;70.55;54.55;;;24.40;60.50;;;;;;5009883;28;92179;-66
2022/09/13 08:01:13;;;;;;;70.90;54.72;;;24.40;60.50;;;;;;5001335;28;91712;-65
2022/09/13 08:03:39;;;;;;;71.07;54.17;;;24.40;60.50;;;;;;5001766;28;90740;-66
2022/09/13 08:06:05;;;;;;;73.15;54.65;;;24.40;60.60;;;;;;5001097;27;89976;-67
2022/09/13 08:08:32;;;;;;;72.22;54.50;;;24.40;60.50;;;;;;5008980;28;90228;-67
2022/09/13 08:10:58;;;;;;;71.93;54.05;;;24.40;60.50;;;;;;5008608;28;92162;-66
2022/09/13 08:13:24;;;;;;;71.15;54.55;;;24.40;60.50;;;;;;5004869;28;92283;-66
2022/09/13 08:15:50;;;;;;;71.20;54.53;;;24.40;60.50;;;;;;5002554;28;91291;-67
2022/09/13 08:18:17;;;;;;;73.00;54.58;;;24.40;60.50;;;;;;5013672;27;92876;-66
2022/09/13 08:20:43;;;;;;;70.07;54.00;;;24.40;60.40;;;;;;5002067;27;91538;-66
2022/09/13 08:23:11;;;;;;;71.90;54.72;;;24.40;60.50;;;;;;5004283;28;92133;-66
2022/09/13 08:25:37;;;;;;;71.43;54.50;;;24.40;60.40;;;;;;5000507;28;89921;-66
2022/09/13 08:28:14;;;;;;;69.72;54.53;;;24.40;60.40;;;;;;5011425;27;89072;-66
2022/09/13 08:30:42;;;;;;;68.93;54.45;;;24.40;60.30;;;;;;5006790;28;91522;-66
2022/09/13 08:33:08;;;;;;;69.30;54.05;;;24.50;60.40;;;;;;5001336;28;92644;-66
2022/09/13 08:35:35;;;;;;;73.60;54.22;;;24.50;60.40;;;;;;5002101;28;95014;-66
2022/09/13 08:38:00;;;;;;;70.65;54.33;;;24.50;60.40;;;;;;5010803;27;89839;-67
2022/09/13 08:40:31;;;;;;;68.40;54.08;;;24.50;60.30;;;;;;5000840;28;91766;-66
2022/09/13 08:43:28;;;;;;;73.97;54.07;;;24.50;60.40;;;;;;4999025;28;90913;-66
2022/09/13 08:46:22;;;;;;;69.05;53.80;;;24.50;60.40;;;;;;4999831;28;89611;-66
2022/09/13 08:48:51;;;;;;;69.95;54.03;;;24.50;60.40;;;;;;5006373;28;94553;-66
2022/09/13 08:51:34;;;;;;;67.43;53.47;;;24.50;60.40;;;;;;5001405;27;91358;-66
2022/09/13 08:54:02;;;;;;;68.47;53.70;;;24.50;60.40;;;;;;5001793;27;91155;-67
2022/09/13 08:56:46;;;;;;;70.50;54.13;;;24.50;60.40;;;;;;5006539;27;90440;-66
2022/09/13 08:59:36;;;;;;;70.32;54.10;;;24.50;60.40;;;;;;5006043;27;89876;-68
2022/09/13 09:02:29;;;;;;;68.38;53.88;;;24.50;60.30;;;;;;5002738;28;92260;-67
2022/09/13 09:05:15;;;;;;;68.63;53.50;;;24.50;60.40;;;;;;5004669;28;91818;-67
2022/09/13 09:08:05;;;;;;;66.57;53.55;;;24.50;60.40;;;;;;5014216;28;90412;-66
2022/09/13 09:10:41;;;;;;;66.38;53.45;;;24.50;60.40;;;;;;5014650;28;95615;-66
2022/09/13 09:13:40;;;;;;;68.82;53.53;;;24.50;60.30;;;;;;5013156;28;91033;-66
2022/09/13 09:16:20;;;;;;;69.65;54.05;;;24.60;60.30;;;;;;5015427;28;90908;-67
2022/09/13 09:18:47;;;;;;;67.93;53.80;;;24.50;60.20;;;;;;5012907;28;91239;-66
2022/09/13 09:21:17;;;;;;;68.93;53.75;;;24.60;60.20;;;;;;5014298;27;89809;-67
2022/09/13 09:23:50;;;;;;;72.43;53.58;;;24.60;60.20;;;;;;5006867;27;91473;-66
2022/09/13 09:26:25;;;;;;;70.13;53.75;;;24.60;60.20;;;;;;5003437;27;90985;-66
2022/09/13 09:29:26;;;;;;;72.75;53.42;;;24.60;60.20;;;;;;5012126;28;90648;-69
2022/09/13 09:32:11;;;;;;;70.47;53.92;;;24.60;60.20;;;;;;5011069;28;90346;-66
2022/09/13 09:34:52;;;;;;;68.35;53.38;;;24.60;60.20;;;;;;5008131;28;92828;-66
2022/09/13 09:37:26;;;;;;;67.97;53.22;;;24.60;60.20;;;;;;5013056;28;91053;-66
2022/09/13 09:39:54;;;;;;;69.50;54.22;;;24.60;60.20;;;;;;5007841;28;91343;-67
2022/09/13 09:42:27;;;;;;;67.35;53.25;;;24.60;60.20;;;;;;5006366;28;92305;-67
2022/09/13 09:45:00;;;;;;;69.72;53.80;;;24.60;60.10;;;;;;5006472;28;96216;-67
2022/09/13 09:47:29;;;;;;;68.68;53.60;;;24.60;60.10;;;;;;5009528;27;92639;-66
2022/09/13 09:50:16;;;;;;;67.53;53.00;;;24.60;60.00;;;;;;5010521;28;90290;-66
2022/09/13 09:53:13;;;;;;;69.57;53.63;;;24.70;60.00;;;;;;5008631;28;90149;-68
2022/09/13 09:55:59;;;;;;;68.05;53.70;;;24.70;60.00;;;;;;5004620;28;91077;-67
2022/09/13 09:58:45;;;;;;;68.22;53.58;;;24.70;60.00;;;;;;5011305;28;92029;-66
2022/09/13 10:01:31;;;;;;;68.53;53.60;;;24.70;59.80;;;;;;5010665;28;89882;-66
2022/09/13 10:04:09;;;;;;;70.32;53.53;;;24.80;59.80;;;;;;5012434;28;90037;-67
2022/09/13 10:06:38;;;;;;;70.13;54.00;;;24.80;59.70;;;;;;5008036;28;91163;-66
2022/09/13 10:09:13;;;;;;;69.00;53.60;;;24.80;59.70;;;;;;5003561;28;91998;-66
2022/09/13 10:14:27;;;;;;;67.93;53.47;;;24.70;59.70;;;;;;4970834;28;97495;-71
2022/09/13 10:17:05;;;;;;;70.95;54.15;;;24.80;59.80;;;;;;4993514;28;90226;-70
2022/09/13 10:19:31;;;;;;;70.65;53.22;;;24.80;60.10;;;;;;4984744;28;90275;-71
2022/09/13 10:22:10;;;;;;;68.65;53.42;;;24.70;59.70;;;;;;4983680;28;91397;-71
2022/09/13 10:24:35;;;;;;;66.13;52.80;;;24.70;59.80;;;;;;4980189;28;89739;-71
2022/09/13 10:27:03;;;;;;;67.00;53.10;;;24.80;59.90;;;;;;4970637;28;89769;-71
2022/09/13 10:29:30;;;;;;;65.18;52.85;;;24.80;59.90;;;;;;5000869;28;92279;-71
2022/09/13 10:32:03;;;;;;;66.97;53.15;;;24.80;59.80;;;;;;4996863;28;91640;-70
2022/09/13 10:34:33;;;;;;;68.00;52.85;;;24.80;59.80;;;;;;4975530;28;90662;-71
2022/09/13 10:37:16;;;;;;;68.17;52.77;;;24.80;59.90;;;;;;4974971;28;93654;-73
2022/09/13 10:40:01;;;;;;;69.25;52.88;;;24.70;59.80;;;;;;4981926;28;89789;-73
2022/09/13 10:42:29;;;;;;;65.32;52.55;;;24.80;59.80;;;;;;4974600;28;94541;-70
2022/09/13 10:44:56;;;;;;;66.60;53.05;;;24.80;59.80;;;;;;4977081;28;93938;-71
2022/09/13 10:47:26;;;;;;;66.93;52.72;;;24.80;59.80;;;;;;4976074;28;92360;-71
2022/09/13 10:49:54;;;;;;;66.28;52.45;;;24.80;59.90;;;;;;4983306;28;94098;-71
2022/09/13 10:52:23;;;;;;;66.43;52.78;;;24.70;59.90;;;;;;4982082;28;90252;-71
2022/09/13 10:54:48;;;;;;;65.75;52.85;;;24.80;59.90;;;;;;4975270;28;91533;-73
2022/09/13 10:57:36;;;;;;;67.65;52.70;;;24.70;59.90;;;;;;4974544;28;91936;-71
2022/09/13 11:00:09;;;;;;;67.63;52.67;;;24.70;60.00;;;;;;4984801;28;90209;-70
2022/09/13 11:03:07;;;;;;;66.60;52.85;;;24.80;60.00;;;;;;4976498;28;91909;-74
2022/09/13 11:05:41;;;;;;;67.18;53.00;;;24.70;59.90;;;;;;4977813;28;91017;-73
2022/09/13 11:08:11;;;;;;;65.38;52.63;;;24.80;60.00;;;;;;4972788;28;94111;-71
2022/09/13 11:11:18;;;;;;;66.22;52.47;;;24.80;59.90;;;;;;4976729;28;89954;-71
2022/09/13 11:13:59;;;;;;;64.68;52.78;;;24.70;59.90;;;;;;4983056;28;90874;-70
2022/09/13 11:17:02;;;;;;;65.80;52.70;;;24.80;60.00;;;;;;4975744;28;90389;-72
2022/09/13 11:19:40;;;;;;;67.82;52.67;;;24.70;60.00;;;;;;4976242;28;89617;-72
2022/09/13 11:22:17;;;;;;;66.55;53.28;;;24.80;60.00;;;;;;4978843;28;95381;-73
2022/09/13 11:24:46;;;;;;;65.90;52.72;;;24.80;59.90;;;;;;4984412;28;89286;-72
2022/09/13 11:27:30;;;;;;;67.82;52.63;;;24.80;59.80;;;;;;4971576;28;90415;-72
2022/09/13 11:30:09;;;;;;;65.78;52.63;;;24.80;59.70;;;;;;4973980;28;91297;-71
2022/09/13 11:32:50;;;;;;;65.72;52.78;;;24.90;59.70;;;;;;4976379;28;92319;-69
2022/09/13 11:35:40;;;;;;;66.87;52.77;;;24.90;59.70;;;;;;4970873;28;91430;-73
2022/09/13 11:38:27;;;;;;;66.30;52.67;;;24.90;59.70;;;;;;4978042;28;89875;-71
2022/09/13 11:41:18;;;;;;;66.22;52.40;;;24.90;59.60;;;;;;4970184;28;93539;-69
2022/09/13 11:43:50;;;;;;;64.85;52.65;;;24.90;59.60;;;;;;4987896;28;93018;-73
2022/09/13 11:46:43;;;;;;;65.40;52.50;;;24.90;59.50;;;;;;4976274;28;89741;-73
2022/09/13 11:49:33;;;;;;;65.25;52.80;;;25.00;59.60;;;;;;4975493;28;90455;-70
2022/09/13 11:52:14;;;;;;;66.90;52.58;;;25.00;59.50;;;;;;4965592;28;89837;-73
2022/09/13 11:54:56;;;;;;;67.03;52.63;;;25.00;59.50;;;;;;4973950;28;95365;-73
2022/09/13 11:57:34;;;;;;;64.20;52.45;;;25.00;59.60;;;;;;4972930;28;90514;-71
2022/09/13 12:00:16;;;;;;;65.45;52.58;;;25.00;59.60;;;;;;4981049;28;97833;-72
2022/09/13 12:02:48;;;;;;;65.00;52.35;;;25.00;59.70;;;;;;4972926;28;91843;-70
2022/09/13 12:05:27;;;;;;;66.85;52.75;;;25.00;59.80;;;;;;4971691;28;89821;-72
2022/09/13 12:08:08;;;;;;;65.10;52.42;;;25.00;59.80;;;;;;4978391;28;91154;-70
2022/09/13 12:10:58;;;;;;;66.25;52.33;;;24.90;59.70;;;;;;4972854;28;90821;-71
2022/09/13 12:13:31;;;;;;;65.15;52.33;;;25.00;59.80;;;;;;4970564;28;91393;-71
2022/09/13 12:16:02;;;;;;;64.13;52.58;;;25.00;59.80;;;;;;4971837;28;89841;-71
2022/09/13 12:18:33;;;;;;;69.15;53.22;;;25.00;59.80;;;;;;4973355;28;90007;-70
2022/09/13 12:21:10;;;;;;;65.57;52.47;;;25.00;59.80;;;;;;4979387;28;90025;-73
2022/09/13 12:23:51;;;;;;;66.10;52.60;;;25.00;59.80;;;;;;4978253;28;94540;-72
2022/09/13 12:26:47;;;;;;;65.28;52.65;;;25.00;59.80;;;;;;4979088;28;91341;-72
2022/09/13 12:29:21;;;;;;;66.28;52.83;;;25.00;59.80;;;;;;4966715;28;92710;-71
2022/09/13 12:31:46;;;;;;;64.72;52.65;;;25.00;59.80;;;;;;4971158;28;91075;-71
2022/09/13 12:34:24;;;;;;;65.68;52.90;;;25.00;59.70;;;;;;4974134;28;91125;-70
2022/09/13 12:37:00;;;;;;;63.80;52.05;;;25.00;59.80;;;;;;4980444;28;90779;-71
2022/09/13 12:39:50;;;;;;;64.55;52.55;;;25.00;59.70;;;;;;4981229;28;94137;-73
2022/09/13 12:42:37;;;;;;;64.43;52.10;;;25.00;59.70;;;;;;4978821;28;90415;-72
2022/09/13 12:45:32;;;;;;;64.07;52.55;;;25.00;59.80;;;;;;4987308;28;91979;-72
2022/09/13 12:48:45;;;;;;;64.53;52.35;;;25.00;59.80;;;;;;4985232;28;90909;-69
2022/09/13 12:51:29;;;;;;;65.50;52.75;;;25.00;59.90;;;;;;4903577;28;90562;-71
2022/09/13 12:54:31;;;;;;;65.00;52.47;;;25.00;59.90;;;;;;4900172;28;88920;-72
2022/09/13 12:57:08;;;;;;;64.30;52.13;;;25.00;59.90;;;;;;4970677;28;92912;-69
2022/09/13 12:59:55;;;;;;;63.85;52.05;;;25.00;60.00;;;;;;4972284;28;91216;-71
2022/09/13 13:02:50;;;;;;;64.07;52.00;;;25.00;60.00;;;;;;4980930;28;90916;-70